Time;durP1;ratioP1;P1;durP2;ratioP2;P2;SDS_P1;SDS_P2;PMS_P1;PMS_P2;Temp;Humidity;BMP_temperature;BMP_pressure;BME280_temperature;BME280_humidity;BME280_pressure;Samples;Min_cycle;Max_cycle;Signal;HPM_P1;HPM_P2
2023/06/17 00:00:54;;;;;;;;;;;;;;;28.33;65.30;98918.59;5021336;28;19921;-47
2023/06/17 00:03:19;;;;;;;;;;;;;;;28.08;65.39;98918.56;5021576;28;19983;-46
2023/06/17 00:05:44;;;;;;;;;;;;;;;28.14;64.75;98917.06;5023105;28;20445;-46
2023/06/17 00:08:09;;;;;;;;;;;;;;;28.03;64.84;98912.09;5021727;28;20271;-46
2023/06/17 00:10:35;;;;;;;;;;;;;;;28.03;65.30;98910.31;5022862;28;20317;-46
2023/06/17 00:13:00;;;;;;;;;;;;;;;27.98;66.36;98917.06;5021555;28;20344;-47
2023/06/17 00:15:28;;;;;;;;;;;;;;;28.07;66.01;98910.78;5022800;28;20275;-46
2023/06/17 00:17:53;;;;;;;;;;;;;;;28.15;66.65;98908.97;5020712;28;19917;-47
2023/06/17 00:20:20;;;;;;;;;;;;;;;28.06;66.30;98898.56;5022325;28;19924;-47
2023/06/17 00:22:46;;;;;;;;;;;;;;;27.98;66.81;98901.19;5021569;28;19917;-46
2023/06/17 00:25:12;;;;;;;;;;;;;;;27.79;67.56;98903.09;5023129;28;19925;-47
2023/06/17 00:27:37;;;;;;;;;;;;;;;27.68;67.99;98903.38;5023236;28;19923;-46
2023/06/17 00:30:03;;;;;;;;;;;;;;;27.94;67.36;98890.91;5020612;28;19925;-46
2023/06/17 00:32:28;;;;;;;;;;;;;;;27.71;68.26;98892.47;5021992;28;19994;-46
2023/06/17 00:34:54;;;;;;;;;;;;;;;27.69;67.86;98902.41;5021820;28;19928;-46
2023/06/17 00:37:19;;;;;;;;;;;;;;;27.67;67.13;98893.81;5022629;28;19917;-46
2023/06/17 00:39:44;;;;;;;;;;;;;;;27.51;67.28;98900.69;5020746;28;19921;-46
2023/06/17 00:42:10;;;;;;;;;;;;;;;27.45;67.06;98901.34;5022728;28;20397;-46
2023/06/17 00:44:35;;;;;;;;;;;;;;;27.58;66.85;98889.50;5020339;28;19924;-46
2023/06/17 00:47:00;;;;;;;;;;;;;;;27.30;66.17;98881.75;5022777;28;19920;-46
2023/06/17 00:49:29;;;;;;;;;;;;;;;27.26;66.81;98893.66;5020256;28;19928;-46
2023/06/17 00:51:55;;;;;;;;;;;;;;;27.30;66.53;98894.97;5019460;28;19925;-46
2023/06/17 00:54:20;;;;;;;;;;;;;;;27.25;66.21;98895.47;5020590;28;19962;-46
2023/06/17 00:56:45;;;;;;;;;;;;;;;27.21;66.06;98898.56;5022614;28;19948;-46
2023/06/17 00:59:10;;;;;;;;;;;;;;;27.20;66.39;98897.75;5020866;28;20028;-46
2023/06/17 01:01:36;;;;;;;;;;;;;;;27.54;64.67;98883.69;5016490;28;19957;-46
2023/06/17 01:04:02;;;;;;;;;;;;;;;27.31;65.52;98889.53;5021017;28;19921;-46
2023/06/17 01:06:33;;;;;;;;;;;;;;;27.08;65.03;98889.25;5019643;28;19929;-46
2023/06/17 01:09:06;;;;;;;;;;;;;;;27.04;64.52;98882.59;5021647;28;19933;-46
2023/06/17 01:11:32;;;;;;;;;;;;;;;26.98;64.60;98888.53;5018213;28;19968;-46
2023/06/17 01:13:57;;;;;;;;;;;;;;;27.02;64.82;98884.56;5020266;28;19967;-46
2023/06/17 01:16:24;;;;;;;;;;;;;;;26.92;65.05;98887.34;5020062;28;20019;-46
2023/06/17 01:18:49;;;;;;;;;;;;;;;27.10;65.21;98884.63;5017979;28;19961;-46
2023/06/17 01:21:17;;;;;;;;;;;;;;;26.98;65.54;98883.25;5020713;28;19945;-46
2023/06/17 01:23:42;;;;;;;;;;;;;;;26.83;65.73;98880.34;5020679;28;20314;-46
2023/06/17 01:26:08;;;;;;;;;;;;;;;26.78;65.79;98887.09;5020275;28;19928;-46
2023/06/17 01:28:34;;;;;;;;;;;;;;;26.85;65.82;98882.84;5018651;28;19999;-46
2023/06/17 01:30:59;;;;;;;;;;;;;;;26.63;65.88;98885.00;5020718;28;19947;-46
2023/06/17 01:33:25;;;;;;;;;;;;;;;26.67;66.66;98881.06;5020384;28;19925;-46
2023/06/17 01:35:59;;;;;;;;;;;;;;;26.57;67.55;98892.72;5021229;28;19932;-46
2023/06/17 01:38:26;;;;;;;;;;;;;;;26.81;67.26;98890.25;5021420;28;20921;-46
2023/06/17 01:40:53;;;;;;;;;;;;;;;26.82;67.10;98888.41;5017656;28;20783;-46
2023/06/17 01:43:18;;;;;;;;;;;;;;;26.81;67.68;98892.06;5019342;28;19956;-46
2023/06/17 01:45:45;;;;;;;;;;;;;;;26.79;68.97;98889.56;5020519;28;20382;-46
2023/06/17 01:48:11;;;;;;;;;;;;;;;25.67;72.48;98917.22;5018828;28;19967;-46
2023/06/17 01:50:36;;;;;;;;;;;;;;;25.55;78.25;98933.41;5021200;28;19948;-46
2023/06/17 01:53:01;;;;;;;;;;;;;;;25.77;78.12;98917.19;5018940;28;19956;-46
2023/06/17 01:55:26;;;;;;;;;;;;;;;25.51;79.84;98924.94;5021107;28;20006;-46
2023/06/17 01:57:51;;;;;;;;;;;;;;;26.35;75.34;98891.38;5019534;28;20026;-46
2023/06/17 02:00:17;;;;;;;;;;;;;;;26.56;74.23;98883.97;5020532;28;19932;-46
2023/06/17 02:02:42;;;;;;;;;;;;;;;26.40;73.30;98891.75;5019238;28;19932;-46
2023/06/17 02:05:07;;;;;;;;;;;;;;;26.15;74.44;98896.81;5020335;28;19924;-46
2023/06/17 02:07:33;;;;;;;;;;;;;;;26.23;72.83;98878.41;5020463;28;19970;-46
2023/06/17 02:09:59;;;;;;;;;;;;;;;26.24;72.56;98880.06;5019093;28;20275;-46
2023/06/17 02:12:24;;;;;;;;;;;;;;;26.17;71.58;98868.44;5018769;28;20016;-46
2023/06/17 02:14:50;;;;;;;;;;;;;;;26.11;71.37;98873.50;5017311;28;19928;-46
2023/06/17 02:17:15;;;;;;;;;;;;;;;26.06;70.88;98863.41;5019465;28;19920;-46
2023/06/17 02:19:41;;;;;;;;;;;;;;;25.92;71.08;98867.41;5018398;28;19921;-46
2023/06/17 02:22:06;;;;;;;;;;;;;;;25.96;71.56;98870.59;5019827;28;19924;-46
2023/06/17 02:24:31;;;;;;;;;;;;;;;25.97;71.25;98867.78;5018543;28;19982;-46
2023/06/17 02:26:57;;;;;;;;;;;;;;;25.79;71.62;98870.38;5020534;28;19921;-46
2023/06/17 02:29:22;;;;;;;;;;;;;;;25.83;71.52;98866.44;5019274;28;20378;-46
2023/06/17 02:31:47;;;;;;;;;;;;;;;25.89;71.16;98865.06;5020633;28;20016;-46
2023/06/17 02:34:13;;;;;;;;;;;;;;;25.73;70.94;98860.44;5018568;28;20286;-45
2023/06/17 02:36:38;;;;;;;;;;;;;;;25.57;71.26;98865.53;5020130;28;20397;-45
2023/06/17 02:39:05;;;;;;;;;;;;;;;25.57;71.63;98865.53;5018118;28;19917;-46
2023/06/17 02:41:30;;;;;;;;;;;;;;;25.64;72.02;98861.31;5017171;28;20429;-46
2023/06/17 02:43:55;;;;;;;;;;;;;;;25.13;72.00;98867.94;5017182;28;19928;-46
2023/06/17 02:46:20;;;;;;;;;;;;;;;25.38;72.25;98854.09;5018082;28;19937;-46
2023/06/17 02:48:45;;;;;;;;;;;;;;;25.40;71.73;98857.41;5020391;28;19945;-46
2023/06/17 02:51:11;;;;;;;;;;;;;;;25.50;71.37;98848.63;5018708;28;19932;-46
2023/06/17 02:53:36;;;;;;;;;;;;;;;25.29;71.24;98851.53;5016710;28;19921;-46
2023/06/17 02:56:01;;;;;;;;;;;;;;;25.28;71.47;98845.44;5017992;28;20397;-46
2023/06/17 02:58:26;;;;;;;;;;;;;;;25.29;70.72;98840.97;5017406;28;19928;-46
2023/06/17 03:00:54;;;;;;;;;;;;;;;25.42;70.70;98839.66;5018657;28;19921;-46
2023/06/17 03:03:26;;;;;;;;;;;;;;;25.32;70.57;98838.88;5016892;28;20305;-46
2023/06/17 03:05:52;;;;;;;;;;;;;;;25.16;71.09;98846.56;5019630;28;19925;-46
2023/06/17 03:08:18;;;;;;;;;;;;;;;25.22;71.51;98846.00;5019071;28;19928;-46
2023/06/17 03:10:43;;;;;;;;;;;;;;;25.20;71.59;98842.69;5017623;28;19921;-46
2023/06/17 03:13:08;;;;;;;;;;;;;;;25.46;70.78;98838.38;5017018;28;19925;-46
2023/06/17 03:15:34;;;;;;;;;;;;;;;25.44;70.80;98839.50;5019790;28;19924;-46
2023/06/17 03:17:59;;;;;;;;;;;;;;;25.26;71.84;98850.00;5019527;28;19928;-45
2023/06/17 03:20:28;;;;;;;;;;;;;;;24.98;73.90;98860.50;5018554;28;20002;-46
2023/06/17 03:22:54;;;;;;;;;;;;;;;25.33;73.50;98851.09;5021107;28;19921;-45
2023/06/17 03:25:19;;;;;;;;;;;;;;;24.98;75.77;98865.78;5024071;28;19928;-45
2023/06/17 03:27:44;;;;;;;;;;;;;;;24.81;78.10;98875.28;5023754;28;19921;-46
2023/06/17 03:30:10;;;;;;;;;;;;;;;25.07;77.98;98861.44;5022708;28;19917;-46
2023/06/17 03:32:35;;;;;;;;;;;;;;;24.62;79.22;98881.38;5019925;28;19944;-45
2023/06/17 03:35:00;;;;;;;;;;;;;;;23.96;84.39;98907.56;5023096;28;19924;-46
2023/06/17 03:37:25;;;;;;;;;;;;;;;23.95;86.09;98908.56;5023852;28;19921;-46
2023/06/17 03:39:51;;;;;;;;;;;;;;;24.43;85.78;98894.56;5023304;28;20063;-45
2023/06/17 03:42:16;;;;;;;;;;;;;;;24.68;83.13;98868.63;5020813;28;19921;-46
2023/06/17 03:44:41;;;;;;;;;;;;;;;24.78;82.12;98872.91;5021335;28;20011;-46
2023/06/17 03:47:07;;;;;;;;;;;;;;;24.90;82.35;98873.56;5022898;28;19925;-46
2023/06/17 03:49:32;;;;;;;;;;;;;;;25.28;80.54;98865.69;5021870;28;19968;-46
2023/06/17 03:51:57;;;;;;;;;;;;;;;25.22;79.96;98862.63;5030002;28;19932;-46
2023/06/17 03:54:22;;;;;;;;;;;;;;;25.27;79.57;98864.00;5022039;28;20117;-46
2023/06/17 03:56:48;;;;;;;;;;;;;;;25.33;78.53;98859.00;5022974;28;19939;-45
2023/06/17 03:59:14;;;;;;;;;;;;;;;24.93;81.46;98872.44;5022371;28;20267;-46
2023/06/17 04:01:40;;;;;;;;;;;;;;;24.87;81.05;98868.59;5020398;28;19928;-45
2023/06/17 04:04:05;;;;;;;;;;;;;;;25.38;78.02;98846.19;5020342;28;19917;-46
2023/06/17 04:06:30;;;;;;;;;;;;;;;25.48;78.67;98845.31;5022260;28;19925;-46
2023/06/17 04:08:55;;;;;;;;;;;;;;;25.60;78.31;98854.69;5020989;28;19921;-46
2023/06/17 04:11:21;;;;;;;;;;;;;;;25.79;76.87;98843.16;5023453;28;19917;-45
2023/06/17 04:13:46;;;;;;;;;;;;;;;25.83;76.89;98837.44;5020572;28;20040;-45
2023/06/17 04:16:13;;;;;;;;;;;;;;;25.76;75.90;98841.66;5021597;28;20285;-45
2023/06/17 04:18:39;;;;;;;;;;;;;;;25.87;77.43;98840.66;5021614;28;19957;-46
2023/06/17 04:21:05;;;;;;;;;;;;;;;25.91;77.74;98847.28;5021875;28;20305;-46
2023/06/17 04:23:30;;;;;;;;;;;;;;;25.57;80.40;98855.00;5021736;28;19917;-46
2023/06/17 04:25:56;;;;;;;;;;;;;;;25.93;78.39;98839.19;5022465;28;19925;-46
2023/06/17 04:28:22;;;;;;;;;;;;;;;25.46;80.88;98867.38;5019776;28;20008;-45
2023/06/17 04:30:48;;;;;;;;;;;;;;;25.19;82.89;98873.47;5022471;28;19920;-46
2023/06/17 04:33:14;;;;;;;;;;;;;;;24.16;87.89;98909.25;5020749;28;19983;-46
2023/06/17 04:35:42;;;;;;;;;;;;;;;24.16;89.90;98909.25;5020478;28;19929;-46
2023/06/17 04:38:10;;;;;;;;;;;;;;;24.67;88.26;98888.03;5022375;28;20027;-45
2023/06/17 04:40:36;;;;;;;;;;;;;;;23.56;91.87;98918.94;5021978;28;20015;-45
2023/06/17 04:43:02;;;;;;;;;;;;;;;23.85;93.76;98910.31;5020849;28;20020;-46
2023/06/17 04:45:27;;;;;;;;;;;;;;;23.86;92.87;98906.75;5020291;28;20274;-46
2023/06/17 04:47:52;;;;;;;;;;;;;;;23.86;93.34;98904.09;5021406;28;19939;-46
2023/06/17 04:50:17;;;;;;;;;;;;;;;25.05;89.44;98866.84;5022104;28;19960;-46
2023/06/17 04:52:43;;;;;;;;;;;;;;;25.28;87.57;98855.16;5020722;28;19921;-46
2023/06/17 04:55:11;;;;;;;;;;;;;;;25.71;85.84;98857.09;5021023;28;19929;-46
2023/06/17 04:57:36;;;;;;;;;;;;;;;25.57;86.23;98860.25;5020726;28;19928;-46
2023/06/17 05:00:01;;;;;;;;;;;;;;;25.66;85.24;98852.28;5021750;28;19917;-46
2023/06/17 05:02:26;;;;;;;;;;;;;;;25.79;85.12;98849.25;5021835;28;19952;-46
2023/06/17 05:04:52;;;;;;;;;;;;;;;26.26;80.60;98827.94;5020548;28;19928;-46
2023/06/17 05:07:17;;;;;;;;;;;;;;;25.87;83.07;98849.38;5019018;28;19921;-46
2023/06/17 05:09:42;;;;;;;;;;;;;;;26.58;82.85;98845.03;5021208;28;19916;-46
2023/06/17 05:12:07;;;;;;;;;;;;;;;26.84;80.69;98828.31;5021403;28;20041;-46
2023/06/17 05:14:33;;;;;;;;;;;;;;;27.06;81.25;98832.25;5020283;28;20027;-46
2023/06/17 05:16:58;;;;;;;;;;;;;;;27.36;77.79;98801.78;5019212;28;21039;-46
2023/06/17 05:19:23;;;;;;;;;;;;;;;27.50;80.00;98830.25;5021494;28;20652;-46
2023/06/17 05:21:48;;;;;;;;;;;;;;;27.56;77.20;98807.63;5021842;28;20520;-46
2023/06/17 05:24:14;;;;;;;;;;;;;;;27.74;74.99;98802.22;5020432;28;20393;-46
2023/06/17 05:26:39;;;;;;;;;;;;;;;27.71;76.23;98811.31;5017901;28;20641;-45
2023/06/17 05:29:04;;;;;;;;;;;;;;;28.12;76.17;98813.16;5021101;28;20459;-46
2023/06/17 05:31:29;;;;;;;;;;;;;;;28.03;76.19;98814.16;5021360;28;19921;-46
2023/06/17 05:33:55;;;;;;;;;;;;;;;28.31;75.61;98818.13;5020641;28;20509;-46
2023/06/17 05:36:20;;;;;;;;;;;;;;;28.05;69.08;98790.97;5019085;28;19929;-46
2023/06/17 05:38:45;;;;;;;;;;;;;;;27.29;68.88;98798.16;5028535;28;20422;-45
2023/06/17 05:41:10;;;;;;;;;;;;;;;26.84;70.12;98818.56;5020667;28;19921;-46
2023/06/17 05:43:36;;;;;;;;;;;;;;;27.77;69.63;98803.69;5020500;28;19925;-46
2023/06/17 05:46:01;;;;;;;;;;;;;;;28.71;66.63;98781.94;5019542;28;20298;-46
2023/06/17 05:48:26;;;;;;;;;;;;;;;28.13;67.73;98798.94;5017789;28;19925;-46
2023/06/17 05:50:51;;;;;;;;;;;;;;;27.19;68.22;98814.13;5019164;28;19974;-46
2023/06/17 05:53:17;;;;;;;;;;;;;;;28.56;67.04;98796.91;5019836;28;19923;-46
2023/06/17 05:55:42;;;;;;;;;;;;;;;26.87;69.64;98833.31;5020964;28;19971;-46
2023/06/17 05:58:08;;;;;;;;;;;;;;;26.20;73.08;98840.91;5018703;28;20503;-46
2023/06/17 06:00:33;;;;;;;;;;;;;;;27.49;70.24;98810.09;5019464;28;19917;-46
2023/06/17 06:02:58;;;;;;;;;;;;;;;26.79;69.74;98820.06;5019645;28;19948;-46
2023/06/17 06:05:23;;;;;;;;;;;;;;;27.00;71.04;98831.03;5019824;28;20548;-46
2023/06/17 06:07:49;;;;;;;;;;;;;;;26.72;70.10;98829.59;5017234;28;19944;-46
2023/06/17 06:10:15;;;;;;;;;;;;;;;27.46;66.50;98802.50;5013572;28;19925;-46
2023/06/17 06:12:40;;;;;;;;;;;;;;;26.35;67.96;98835.94;5019543;28;19921;-46
2023/06/17 06:15:05;;;;;;;;;;;;;;;27.21;69.80;98830.69;5018648;28;19916;-46
2023/06/17 06:17:31;;;;;;;;;;;;;;;26.84;70.05;98841.53;5019592;28;19948;-46
2023/06/17 06:19:56;;;;;;;;;;;;;;;27.67;69.94;98819.72;5019416;28;20141;-46
2023/06/17 06:22:21;;;;;;;;;;;;;;;26.62;71.52;98848.19;5017657;28;19921;-46
2023/06/17 06:24:46;;;;;;;;;;;;;;;26.09;72.52;98855.16;5018074;28;19921;-46
2023/06/17 06:27:12;;;;;;;;;;;;;;;26.87;69.25;98833.31;5018777;28;20203;-46
2023/06/17 06:29:37;;;;;;;;;;;;;;;27.10;67.65;98818.53;5020646;28;19917;-46
2023/06/17 06:32:02;;;;;;;;;;;;;;;27.41;70.01;98833.03;5019913;28;19932;-46
2023/06/17 06:34:28;;;;;;;;;;;;;;;27.85;65.70;98811.66;5016951;28;19925;-46
2023/06/17 06:36:56;;;;;;;;;;;;;;;27.68;68.76;98830.13;5018727;28;19921;-46
2023/06/17 06:39:21;;;;;;;;;;;;;;;25.98;73.71;98877.38;5020360;28;20016;-46
2023/06/17 06:41:46;;;;;;;;;;;;;;;27.00;72.07;98854.81;5019289;28;19923;-46
2023/06/17 06:44:12;;;;;;;;;;;;;;;26.61;72.15;98863.19;5017858;28;19921;-46
2023/06/17 06:46:37;;;;;;;;;;;;;;;28.61;66.80;98801.72;5019524;28;19925;-46
2023/06/17 06:49:02;;;;;;;;;;;;;;;28.49;67.60;98825.09;5018429;28;19917;-46
2023/06/17 06:51:27;;;;;;;;;;;;;;;28.74;66.46;98818.72;5019848;28;20238;-46
2023/06/17 06:53:52;;;;;;;;;;;;;;;27.77;70.05;98841.56;5017839;28;19945;-46
2023/06/17 06:56:18;;;;;;;;;;;;;;;27.40;71.51;98858.66;5016664;28;19921;-46
2023/06/17 06:58:43;;;;;;;;;;;;;;;27.41;72.95;98873.53;5017209;28;19987;-46
2023/06/17 07:01:08;;;;;;;;;;;;;;;27.53;75.54;98861.69;5016413;28;19928;-46
2023/06/17 07:03:33;;;;;;;;;;;;;;;29.56;63.67;98794.50;5018777;28;19913;-46
2023/06/17 07:05:59;;;;;;;;;;;;;;;29.06;59.71;98813.47;5017263;28;19925;-47
2023/06/17 07:08:24;;;;;;;;;;;;;;;28.55;68.59;98848.22;5014106;28;20365;-46
2023/06/17 07:10:49;;;;;;;;;;;;;;;29.42;60.85;98813.00;5018067;28;19921;-46
2023/06/17 07:13:17;;;;;;;;;;;;;;;29.81;61.09;98815.59;5015809;28;19921;-46
2023/06/17 07:15:42;;;;;;;;;;;;;;;28.52;61.86;98835.34;5015011;28;20019;-46
2023/06/17 07:18:07;;;;;;;;;;;;;;;29.30;60.29;98828.47;5016857;28;19921;-46
2023/06/17 07:20:32;;;;;;;;;;;;;;;26.35;70.39;98894.00;5019442;28;20051;-46
2023/06/17 07:22:58;;;;;;;;;;;;;;;29.49;62.15;98820.09;5015950;28;19928;-46
2023/06/17 07:25:23;;;;;;;;;;;;;;;29.81;58.27;98807.66;5013324;28;19925;-46
2023/06/17 07:27:50;;;;;;;;;;;;;;;31.23;52.87;98787.25;5015069;28;19925;-46
2023/06/17 07:30:16;;;;;;;;;;;;;;;28.14;64.66;98872.06;5016468;28;19952;-46
2023/06/17 07:32:41;;;;;;;;;;;;;;;28.55;62.45;98846.41;5018726;28;20338;-46
2023/06/17 07:35:06;;;;;;;;;;;;;;;28.76;69.48;98869.75;5019331;28;19921;-46
2023/06/17 07:37:31;;;;;;;;;;;;;;;26.96;66.56;98874.66;5018837;28;19991;-46
2023/06/17 07:39:57;;;;;;;;;;;;;;;26.48;69.48;98875.97;5015549;28;19975;-46
2023/06/17 07:42:22;;;;;;;;;;;;;;;27.67;69.94;98862.06;5018695;28;19928;-46
2023/06/17 07:44:47;;;;;;;;;;;;;;;28.57;66.83;98838.31;5018537;28;19925;-46
2023/06/17 07:47:13;;;;;;;;;;;;;;;29.40;61.86;98810.53;5019488;28;19921;-46
2023/06/17 07:49:38;;;;;;;;;;;;;;;28.00;68.31;98872.72;5016264;28;19932;-46
2023/06/17 07:52:03;;;;;;;;;;;;;;;27.24;68.76;98882.41;5015782;28;19921;-46
2023/06/17 07:54:30;;;;;;;;;;;;;;;26.53;67.30;98871.03;5016161;28;19935;-46
2023/06/17 07:56:55;;;;;;;;;;;;;;;26.63;67.28;98863.88;5015098;28;19920;-46
2023/06/17 07:59:21;;;;;;;;;;;;;;;27.31;71.37;98886.91;5014305;28;20400;-46
2023/06/17 08:01:46;;;;;;;;;;;;;;;26.86;65.31;98858.06;5016308;28;20047;-46
2023/06/17 08:04:11;;;;;;;;;;;;;;;27.28;65.74;98857.31;5017494;28;19920;-46
2023/06/17 08:06:37;;;;;;;;;;;;;;;27.32;64.52;98848.06;5014908;28;19937;-46
2023/06/17 08:09:03;;;;;;;;;;;;;;;28.97;65.05;98847.16;5019654;28;19917;-46
2023/06/17 08:11:28;;;;;;;;;;;;;;;28.39;66.06;98853.53;5022986;28;19928;-46
2023/06/17 08:13:53;;;;;;;;;;;;;;;28.35;65.39;98839.78;5022700;28;19913;-46
2023/06/17 08:16:18;;;;;;;;;;;;;;;28.12;65.38;98850.22;5023339;28;19917;-46
2023/06/17 08:18:44;;;;;;;;;;;;;;;31.03;55.20;98783.53;5017976;28;19921;-46
2023/06/17 08:21:09;;;;;;;;;;;;;;;30.57;57.12;98815.63;5022443;28;20249;-46
2023/06/17 08:23:34;;;;;;;;;;;;;;;30.24;57.47;98810.59;5022637;28;19919;-46
2023/06/17 08:25:59;;;;;;;;;;;;;;;28.18;65.05;98864.63;5021110;28;19961;-46
2023/06/17 08:28:25;;;;;;;;;;;;;;;29.32;62.79;98827.31;5020782;28;19928;-46
2023/06/17 08:30:51;;;;;;;;;;;;;;;31.13;57.32;98794.69;5020243;28;20058;-46
2023/06/17 08:33:17;;;;;;;;;;;;;;;29.34;61.67;98835.91;5021351;28;19964;-46
2023/06/17 08:35:42;;;;;;;;;;;;;;;28.29;63.81;98843.13;5014730;28;20450;-46
2023/06/17 08:38:07;;;;;;;;;;;;;;;30.11;61.88;98818.34;5017970;28;20496;-46
2023/06/17 08:40:32;;;;;;;;;;;;;;;28.00;64.10;98846.25;5020773;28;19924;-46
2023/06/17 08:43:02;;;;;;;;;;;;;;;27.95;68.38;98862.63;5013122;28;19921;-46
2023/06/17 08:45:27;;;;;;;;;;;;;;;28.61;68.37;98844.09;5021794;28;19948;-46
2023/06/17 08:47:52;;;;;;;;;;;;;;;27.68;68.95;98858.41;5021785;28;20436;-46
2023/06/17 08:50:17;;;;;;;;;;;;;;;28.48;63.87;98810.16;5017715;28;20366;-46
2023/06/17 08:52:43;;;;;;;;;;;;;;;28.19;67.88;98840.66;5019720;28;19941;-46
2023/06/17 08:55:08;;;;;;;;;;;;;;;29.01;67.82;98840.50;5020171;28;19986;-47
2023/06/17 08:57:34;;;;;;;;;;;;;;;28.80;63.62;98821.69;5020867;28;20369;-46
2023/06/17 08:59:59;;;;;;;;;;;;;;;28.56;64.65;98832.19;5020852;28;19964;-47
2023/06/17 09:02:24;;;;;;;;;;;;;;;29.02;67.40;98841.34;5019283;28;20616;-46
2023/06/17 09:04:50;;;;;;;;;;;;;;;27.61;71.21;98883.88;5019332;28;19933;-46
2023/06/17 09:07:15;;;;;;;;;;;;;;;28.53;62.76;98810.47;5020134;28;20368;-46
2023/06/17 09:09:40;;;;;;;;;;;;;;;28.29;62.74;98813.97;5017157;28;19967;-46
2023/06/17 09:12:06;;;;;;;;;;;;;;;31.01;57.12;98775.72;5019624;28;19965;-47
2023/06/17 09:14:31;;;;;;;;;;;;;;;31.34;56.27;98769.13;5021550;28;19917;-47
2023/06/17 09:16:57;;;;;;;;;;;;;;;29.22;63.72;98842.63;5021940;28;19939;-47
2023/06/17 09:19:22;;;;;;;;;;;;;;;28.03;58.08;98808.84;5019243;28;19928;-47
2023/06/17 09:21:47;;;;;;;;;;;;;;;31.03;57.65;98783.53;5017118;28;19932;-47
2023/06/17 09:24:12;;;;;;;;;;;;;;;29.53;64.39;98831.16;5018295;28;20362;-47
2023/06/17 09:26:42;;;;;;;;;;;;;;;29.31;61.81;98820.34;5016677;28;20716;-47
2023/06/17 09:29:11;;;;;;;;;;;;;;;29.05;60.16;98810.00;5018874;28;19917;-47
2023/06/17 09:31:49;;;;;;;;;;;;;;;29.97;59.29;98804.00;5021628;28;19917;-47
2023/06/17 09:34:14;;;;;;;;;;;;;;;29.81;60.56;98815.59;5019393;28;19952;-47
2023/06/17 09:36:39;;;;;;;;;;;;;;;30.80;54.09;98779.13;5019966;28;19921;-47
2023/06/17 09:39:05;;;;;;;;;;;;;;;32.48;49.34;98756.63;5018786;28;20006;-47
2023/06/17 09:41:34;;;;;;;;;;;;;;;30.17;54.81;98799.03;5019657;28;20025;-46
2023/06/17 09:44:00;;;;;;;;;;;;;;;30.17;51.78;98781.25;5020506;28;19925;-47
2023/06/17 09:46:29;;;;;;;;;;;;;;;29.73;56.87;98818.31;5019220;28;19929;-47
2023/06/17 09:48:54;;;;;;;;;;;;;;;30.47;56.79;98805.22;5018857;28;19917;-47
2023/06/17 09:51:23;;;;;;;;;;;;;;;30.80;53.32;98800.41;5018516;28;19932;-47
2023/06/17 09:53:52;;;;;;;;;;;;;;;29.93;53.67;98798.25;5019905;28;20676;-47
2023/06/17 09:56:18;;;;;;;;;;;;;;;29.80;55.40;98819.25;5021087;28;19923;-47
2023/06/17 09:58:44;;;;;;;;;;;;;;;30.12;52.41;98790.78;5020963;28;19924;-47
2023/06/17 10:01:11;;;;;;;;;;;;;;;30.17;56.82;98804.34;5019600;28;19925;-47
2023/06/17 10:03:37;;;;;;;;;;;;;;;29.24;58.52;98816.75;5019111;28;19928;-47
2023/06/17 10:06:08;;;;;;;;;;;;;;;31.81;53.34;98765.94;5017862;28;20394;-47
2023/06/17 10:08:35;;;;;;;;;;;;;;;34.00;43.55;98722.56;5019906;28;20406;-47
2023/06/17 10:11:00;;;;;;;;;;;;;;;30.49;52.26;98797.09;5018870;28;20464;-47
2023/06/17 10:13:26;;;;;;;;;;;;;;;31.33;49.69;98756.84;5019954;28;19921;-47
2023/06/17 10:15:51;;;;;;;;;;;;;;;28.75;53.23;98804.47;5019950;28;19940;-47
2023/06/17 10:18:16;;;;;;;;;;;;;;;29.68;55.37;98794.13;5018988;28;19920;-47
2023/06/17 10:20:42;;;;;;;;;;;;;;;30.70;56.05;98794.56;5019862;28;20016;-47
2023/06/17 10:23:07;;;;;;;;;;;;;;;29.53;52.72;98786.06;5018769;28;20008;-47
2023/06/17 10:25:32;;;;;;;;;;;;;;;30.63;54.00;98778.50;5019277;28;20005;-47
2023/06/17 10:27:57;;;;;;;;;;;;;;;31.57;56.15;98779.66;5019549;28;20031;-47
2023/06/17 10:30:24;;;;;;;;;;;;;;;30.21;55.51;98789.69;5018612;28;19932;-47
2023/06/17 10:32:54;;;;;;;;;;;;;;;30.20;53.71;98782.75;5019954;28;19921;-47
2023/06/17 10:35:19;;;;;;;;;;;;;;;31.47;50.92;98753.34;5020336;28;20404;-47
2023/06/17 10:37:46;;;;;;;;;;;;;;;30.08;56.92;98792.13;5021308;28;19998;-47
2023/06/17 10:40:21;;;;;;;;;;;;;;;31.37;49.88;98744.84;5019335;28;19960;-47
2023/06/17 10:42:53;;;;;;;;;;;;;;;31.81;48.34;98744.66;5020268;28;20063;-47
2023/06/17 10:45:18;;;;;;;;;;;;;;;32.33;49.57;98744.44;5020437;28;19996;-48
2023/06/17 10:47:43;;;;;;;;;;;;;;;30.29;52.35;98783.50;5020235;28;19927;-47
2023/06/17 10:50:09;;;;;;;;;;;;;;;32.49;51.35;98750.28;5017729;28;20012;-47
2023/06/17 10:52:34;;;;;;;;;;;;;;;35.17;43.36;98695.88;5018174;28;20015;-47
2023/06/17 10:54:59;;;;;;;;;;;;;;;32.87;51.51;98781.06;5018910;28;19970;-48
2023/06/17 10:57:34;;;;;;;;;;;;;;;31.15;53.88;98797.19;5018151;28;19917;-48
2023/06/17 11:00:10;;;;;;;;;;;;;;;31.27;54.29;98793.84;5014572;28;19947;-48
2023/06/17 11:02:36;;;;;;;;;;;;;;;30.35;47.83;98770.31;5014353;28;20919;-47
2023/06/17 11:05:01;;;;;;;;;;;;;;;32.08;49.48;98744.88;5014454;28;19932;-48
2023/06/17 11:07:27;;;;;;;;;;;;;;;33.30;45.21;98738.97;5014076;28;19968;-47
2023/06/17 11:09:52;;;;;;;;;;;;;;;31.72;55.24;98803.56;5015374;28;19920;-47
2023/06/17 11:12:17;;;;;;;;;;;;;;;31.99;52.85;98770.84;5016623;28;19962;-48
2023/06/17 11:14:43;;;;;;;;;;;;;;;30.66;49.59;98769.34;5016177;28;19928;-48
2023/06/17 11:17:08;;;;;;;;;;;;;;;31.02;50.70;98766.75;5017204;28;19917;-48
2023/06/17 11:19:33;;;;;;;;;;;;;;;32.13;43.83;98718.47;5019763;28;20660;-48
2023/06/17 11:22:04;;;;;;;;;;;;;;;32.98;49.27;98760.97;5016975;28;19944;-48
2023/06/17 11:24:30;;;;;;;;;;;;;;;32.74;48.83;98763.16;5015251;28;19932;-48
2023/06/17 11:26:56;;;;;;;;;;;;;;;31.10;50.51;98773.78;5018258;28;19925;-48
2023/06/17 11:29:22;;;;;;;;;;;;;;;31.47;50.45;98764.00;5017713;28;19931;-47
2023/06/17 11:31:47;;;;;;;;;;;;;;;31.80;48.31;98752.84;5017790;28;20036;-48
2023/06/17 11:34:12;;;;;;;;;;;;;;;32.19;50.93;98762.19;5017860;28;20027;-48
2023/06/17 11:36:38;;;;;;;;;;;;;;;31.75;48.13;98756.09;5019824;28;20043;-47
2023/06/17 11:39:04;;;;;;;;;;;;;;;31.59;47.47;98751.84;5018126;28;19916;-48
2023/06/17 11:41:29;;;;;;;;;;;;;;;31.98;44.29;98713.28;5019043;28;20013;-48
2023/06/17 11:43:54;;;;;;;;;;;;;;;31.94;42.31;98714.63;5019857;28;20207;-48
2023/06/17 11:46:23;;;;;;;;;;;;;;;33.20;43.74;98708.34;5022047;28;19924;-48
2023/06/17 11:48:48;;;;;;;;;;;;;;;34.21;40.99;98692.13;5021884;28;19917;-48
2023/06/17 11:51:15;;;;;;;;;;;;;;;33.46;43.10;98712.88;5021852;28;19921;-48
2023/06/17 11:53:42;;;;;;;;;;;;;;;33.29;43.34;98720.47;5021466;28;20369;-48
2023/06/17 11:56:07;;;;;;;;;;;;;;;32.04;52.08;98767.59;5021246;28;19941;-48
2023/06/17 11:58:37;;;;;;;;;;;;;;;32.46;45.86;98716.03;5021296;28;20419;-48
2023/06/17 12:01:03;;;;;;;;;;;;;;;34.77;40.96;98680.84;5019152;28;19980;-48
2023/06/17 12:03:28;;;;;;;;;;;;;;;34.75;39.85;98676.75;5020427;28;20584;-48
2023/06/17 12:05:53;;;;;;;;;;;;;;;32.58;46.63;98734.16;5021533;28;19929;-48
2023/06/17 12:08:19;;;;;;;;;;;;;;;31.52;47.88;98740.31;5021655;28;19925;-48
2023/06/17 12:10:44;;;;;;;;;;;;;;;32.86;40.56;98672.72;5021777;28;19981;-48
2023/06/17 12:13:12;;;;;;;;;;;;;;;32.70;48.79;98733.38;5020122;28;19917;-48
2023/06/17 12:15:38;;;;;;;;;;;;;;;35.03;41.18;98662.19;5019371;28;20015;-48
2023/06/17 12:18:10;;;;;;;;;;;;;;;32.79;39.27;98669.22;5020521;28;20904;-48
2023/06/17 12:20:35;;;;;;;;;;;;;;;34.99;38.32;98656.47;5022424;28;19983;-48
2023/06/17 12:23:00;;;;;;;;;;;;;;;36.95;37.51;98647.94;5020562;28;20337;-48
2023/06/17 12:25:25;;;;;;;;;;;;;;;34.53;37.87;98679.72;5020608;28;19921;-48
2023/06/17 12:27:51;;;;;;;;;;;;;;;35.61;37.41;98667.38;5020256;28;19931;-48
2023/06/17 12:30:17;;;;;;;;;;;;;;;34.53;36.88;98669.03;5021740;28;19924;-48
2023/06/17 12:32:42;;;;;;;;;;;;;;;34.88;38.46;98678.56;5020408;28;20996;-48
2023/06/17 12:35:09;;;;;;;;;;;;;;;33.45;44.24;98716.59;5017357;28;19921;-48
2023/06/17 12:37:35;;;;;;;;;;;;;;;34.96;38.45;98656.88;5020418;28;19948;-48
2023/06/17 12:40:03;;;;;;;;;;;;;;;34.66;42.49;98691.41;5021533;28;20469;-48